createdAt,value
2023-04-03T00:00:51.456Z,2.38
2023-04-03T00:03:19.155Z,2.20
2023-04-03T00:05:47.021Z,2.47
2023-04-03T00:08:13.855Z,2.72
2023-04-03T00:10:41.000Z,2.72
2023-04-03T00:13:07.984Z,2.80
2023-04-03T00:15:35.463Z,2.85
2023-04-03T00:18:02.977Z,2.70
2023-04-03T00:20:30.062Z,2.55
2023-04-03T00:22:56.833Z,2.70
2023-04-03T00:25:23.974Z,3.13
2023-04-03T00:27:50.857Z,2.38
2023-04-03T00:30:18.886Z,2.97
2023-04-03T00:32:45.691Z,2.53
2023-04-03T00:35:12.807Z,2.67
2023-04-03T00:37:39.648Z,3.05
2023-04-03T00:40:07.576Z,3.55
2023-04-03T00:42:34.350Z,3.05
2023-04-03T00:45:01.887Z,2.70
2023-04-03T00:47:28.691Z,2.97
2023-04-03T00:49:56.168Z,2.88
2023-04-03T00:52:24.791Z,3.58
2023-04-03T00:54:52.411Z,3.33
2023-04-03T00:57:19.250Z,3.13
2023-04-03T00:59:49.643Z,2.70
2023-04-03T01:02:16.598Z,3.00
2023-04-03T01:04:44.220Z,3.13
2023-04-03T01:07:17.216Z,3.38
2023-04-03T01:09:44.340Z,3.70
2023-04-03T01:12:20.705Z,3.22
2023-04-03T01:14:49.543Z,3.13
2023-04-03T01:17:25.796Z,3.42
2023-04-03T01:20:13.411Z,3.28
2023-04-03T01:23:01.066Z,3.00
2023-04-03T01:25:28.330Z,3.00
2023-04-03T01:27:55.072Z,3.30
2023-04-03T01:30:22.725Z,3.20
2023-04-03T01:32:49.581Z,2.55
2023-04-03T01:35:16.666Z,2.35
2023-04-03T01:37:43.447Z,2.75
2023-04-03T01:40:10.834Z,3.03
2023-04-03T01:42:37.591Z,3.13
2023-04-03T01:45:04.989Z,2.50
2023-04-03T01:47:31.858Z,2.88
2023-04-03T01:49:59.022Z,2.78
2023-04-03T01:52:25.843Z,2.90
2023-04-03T01:54:52.889Z,3.33
2023-04-03T01:57:19.649Z,2.70
2023-04-03T01:59:46.805Z,3.25
2023-04-03T02:02:15.618Z,2.92
2023-04-03T02:04:42.749Z,2.72
2023-04-03T02:07:09.587Z,2.80
2023-04-03T02:09:37.248Z,2.70
2023-04-03T02:12:04.025Z,2.88
2023-04-03T02:14:31.114Z,3.10
2023-04-03T02:16:57.955Z,2.78
2023-04-03T02:19:25.140Z,2.92
2023-04-03T02:21:51.903Z,2.30
2023-04-03T02:24:18.933Z,2.10
2023-04-03T02:26:45.801Z,2.88
2023-04-03T02:29:12.770Z,2.63
2023-04-03T02:31:39.570Z,3.03
2023-04-03T02:34:06.826Z,2.33
2023-04-03T02:36:33.616Z,2.58
2023-04-03T02:39:00.654Z,2.15
2023-04-03T02:41:34.587Z,2.30
2023-04-03T02:44:02.775Z,2.47
2023-04-03T02:46:29.664Z,2.60
2023-04-03T02:48:56.766Z,2.00
2023-04-03T02:51:24.048Z,2.28
2023-04-03T02:53:51.607Z,2.05
2023-04-03T02:56:19.141Z,2.10
2023-04-03T02:58:46.231Z,2.35
2023-04-03T03:01:13.040Z,2.22
2023-04-03T03:03:40.099Z,2.15
2023-04-03T03:06:08.780Z,2.63
2023-04-03T03:08:35.979Z,2.78
2023-04-03T03:11:02.957Z,2.30
2023-04-03T03:13:30.219Z,2.22
2023-04-03T03:15:56.994Z,2.50
2023-04-03T03:18:24.152Z,1.95
2023-04-03T03:20:54.691Z,2.42
2023-04-03T03:23:22.289Z,2.35
2023-04-03T03:25:49.034Z,2.15
2023-04-03T03:28:16.104Z,2.38
2023-04-03T03:30:42.886Z,2.13
2023-04-03T03:33:09.933Z,2.47
2023-04-03T03:35:37.286Z,2.17
2023-04-03T03:38:04.565Z,2.10
2023-04-03T03:40:31.356Z,1.88
2023-04-03T03:42:58.417Z,2.28
2023-04-03T03:45:25.878Z,2.10
2023-04-03T03:47:52.957Z,1.88
2023-04-03T03:50:19.732Z,1.73
2023-04-03T03:52:47.093Z,2.30
2023-04-03T03:55:13.995Z,2.60
2023-04-03T03:57:41.029Z,2.10
2023-04-03T04:00:08.405Z,1.77
2023-04-03T04:02:35.622Z,1.60
2023-04-03T04:05:02.719Z,1.80
2023-04-03T04:07:30.341Z,1.67
2023-04-03T04:09:57.075Z,2.10
2023-04-03T04:12:24.157Z,2.33
2023-04-03T04:14:50.902Z,2.30
2023-04-03T04:17:17.966Z,2.20
2023-04-03T04:19:44.731Z,1.98
2023-04-03T04:22:11.759Z,2.17
2023-04-03T04:24:39.682Z,1.90
2023-04-03T04:27:06.975Z,2.00
2023-04-03T04:29:36.745Z,2.15
2023-04-03T04:32:04.601Z,1.67
2023-04-03T04:34:31.559Z,1.80
2023-04-03T04:36:58.814Z,2.42
2023-04-03T04:39:25.639Z,2.30
2023-04-03T04:41:52.739Z,1.90
2023-04-03T04:44:19.908Z,1.70
2023-04-03T04:46:46.987Z,1.60
2023-04-03T04:49:13.710Z,1.85
2023-04-03T04:51:51.119Z,1.77
2023-04-03T04:54:18.704Z,1.70
2023-04-03T04:56:45.934Z,1.70
2023-04-03T04:59:12.761Z,1.52
2023-04-03T05:01:39.843Z,2.13
2023-04-03T05:04:06.612Z,1.50
2023-04-03T05:06:33.980Z,1.73
2023-04-03T05:09:01.064Z,1.83
2023-04-03T05:11:28.114Z,1.92
2023-04-03T05:13:54.952Z,2.20
2023-04-03T05:16:22.005Z,2.38
2023-04-03T05:18:48.766Z,1.60
2023-04-03T05:21:15.903Z,1.85
2023-04-03T05:23:42.640Z,2.00
2023-04-03T05:26:09.727Z,1.77
2023-04-03T05:28:36.882Z,1.63
2023-04-03T05:31:03.943Z,1.85
2023-04-03T05:33:30.695Z,1.98
2023-04-03T05:35:57.804Z,1.90
2023-04-03T05:38:24.675Z,2.00
2023-04-03T05:40:52.119Z,1.90
2023-04-03T05:43:18.907Z,1.73
2023-04-03T05:45:46.942Z,2.22
2023-04-03T05:48:14.041Z,1.98
2023-04-03T05:50:43.361Z,1.98
2023-04-03T05:53:21.979Z,1.80
2023-04-03T05:55:49.076Z,2.13
2023-04-03T05:58:16.115Z,1.90
2023-04-03T06:00:43.460Z,1.75
2023-04-03T06:03:10.390Z,2.13
2023-04-03T06:05:37.853Z,2.22
2023-04-03T06:08:04.791Z,2.53
2023-04-03T06:10:31.951Z,2.03
2023-04-03T06:12:58.789Z,2.30
2023-04-03T06:15:25.877Z,2.17
2023-04-03T06:17:52.819Z,2.72
2023-04-03T06:20:20.004Z,2.72
2023-04-03T06:22:46.932Z,2.45
2023-04-03T06:25:13.994Z,2.40
2023-04-03T06:27:41.136Z,2.75
2023-04-03T06:30:08.711Z,2.72
2023-04-03T06:32:35.512Z,2.33
2023-04-03T06:35:02.631Z,2.38
2023-04-03T06:37:30.795Z,2.20
2023-04-03T06:39:57.909Z,2.25
2023-04-03T06:42:24.979Z,2.20
2023-04-03T06:44:52.058Z,2.50
2023-04-03T06:47:18.875Z,2.20
2023-04-03T06:49:45.958Z,2.10
2023-04-03T06:52:15.502Z,2.22
2023-04-03T06:54:42.601Z,2.22
2023-04-03T06:57:09.513Z,2.53
2023-04-03T06:59:37.505Z,1.92
2023-04-03T07:02:04.838Z,3.25
2023-04-03T07:04:32.056Z,2.50
2023-04-03T07:06:58.845Z,2.22
2023-04-03T07:09:26.208Z,2.45
2023-04-03T07:11:52.952Z,2.05
2023-04-03T07:14:20.061Z,2.60
2023-04-03T07:16:46.794Z,1.98
2023-04-03T07:19:13.946Z,1.83
2023-04-03T07:21:41.671Z,2.45
2023-04-03T07:24:11.352Z,2.42
2023-04-03T07:26:42.047Z,3.70
2023-04-03T07:29:10.013Z,3.20
2023-04-03T07:31:36.870Z,2.80
2023-04-03T07:34:04.064Z,2.33
2023-04-03T07:36:34.300Z,2.47
2023-04-03T07:39:01.680Z,2.63
2023-04-03T07:41:29.678Z,1.88
2023-04-03T07:43:57.641Z,2.00
2023-04-03T07:46:24.778Z,2.00
2023-04-03T07:48:51.911Z,2.20
2023-04-03T07:51:18.812Z,2.03
2023-04-03T07:53:46.010Z,2.42
2023-04-03T07:56:12.901Z,2.00
2023-04-03T07:58:40.060Z,2.20
2023-04-03T08:01:07.166Z,1.92
2023-04-03T08:03:34.393Z,2.20
2023-04-03T08:06:06.053Z,2.03
2023-04-03T08:08:35.047Z,2.92
2023-04-03T08:11:03.406Z,2.50
2023-04-03T08:13:31.528Z,2.33
2023-04-03T08:16:00.081Z,2.13
2023-04-03T08:18:27.756Z,1.40
2023-04-03T08:20:54.644Z,3.15
2023-04-03T08:23:22.018Z,2.60
2023-04-03T08:25:48.795Z,2.38
2023-04-03T08:28:15.907Z,1.80
2023-04-03T08:30:43.492Z,2.17
2023-04-03T08:33:10.883Z,2.05
2023-04-03T08:35:41.821Z,2.03
2023-04-03T08:38:09.851Z,2.55
2023-04-03T08:40:36.672Z,3.03
2023-04-03T08:43:09.924Z,1.88
2023-04-03T08:45:52.647Z,2.50
2023-04-03T08:48:25.599Z,2.35
2023-04-03T08:50:58.141Z,1.90
2023-04-03T08:53:32.138Z,2.33
2023-04-03T08:55:59.108Z,2.47
2023-04-03T08:58:27.618Z,1.92
2023-04-03T09:01:03.674Z,2.47
2023-04-03T09:03:32.653Z,2.35
2023-04-03T09:06:04.650Z,2.40
2023-04-03T09:08:56.716Z,2.50
2023-04-03T09:11:49.771Z,2.10
2023-04-03T09:14:26.070Z,2.15
2023-04-03T09:16:55.957Z,2.22
2023-04-03T09:19:32.154Z,2.10
2023-04-03T09:22:08.757Z,2.13
2023-04-03T09:24:35.845Z,1.95
2023-04-03T09:27:05.410Z,2.08
2023-04-03T09:29:32.565Z,1.80
2023-04-03T09:32:03.621Z,1.95
2023-04-03T09:34:36.609Z,1.65
2023-04-03T09:37:09.860Z,1.23
2023-04-03T09:39:54.590Z,1.70
2023-04-03T09:42:23.679Z,2.20
2023-04-03T09:45:00.978Z,2.25
2023-04-03T09:47:34.192Z,2.63
2023-04-03T09:50:13.970Z,2.30
2023-04-03T09:52:45.012Z,2.38
2023-04-03T09:55:30.487Z,1.52
2023-04-03T09:58:02.187Z,1.83
2023-04-03T10:00:35.199Z,1.40
2023-04-03T10:03:01.964Z,1.90
2023-04-03T10:05:36.078Z,1.38
2023-04-03T10:08:14.912Z,1.20
2023-04-03T10:10:47.950Z,1.70
2023-04-03T10:13:21.476Z,2.35
2023-04-03T10:15:56.559Z,1.60
2023-04-03T10:18:46.531Z,1.27
2023-04-03T10:21:30.348Z,1.60
2023-04-03T10:24:09.771Z,1.55
2023-04-03T10:27:06.259Z,1.55
2023-04-03T10:32:05.119Z,1.65
2023-04-03T10:34:38.299Z,1.27
2023-04-03T10:37:29.682Z,1.30
2023-04-03T10:40:33.396Z,1.58
2023-04-03T10:43:22.551Z,1.75
2023-04-03T10:46:03.460Z,1.23
2023-04-03T10:48:40.271Z,1.40
2023-04-03T10:51:35.121Z,1.48
2023-04-03T10:54:24.273Z,1.77
2023-04-03T10:57:01.328Z,1.50
2023-04-03T10:59:47.722Z,1.20
2023-04-03T11:02:20.340Z,1.30
2023-04-03T11:04:49.838Z,1.40
2023-04-03T11:07:32.777Z,1.27
2023-04-03T11:10:03.632Z,1.20
2023-04-03T11:12:46.050Z,1.30
2023-04-03T11:15:16.399Z,1.50
2023-04-03T11:17:51.865Z,1.23
2023-04-03T11:20:33.850Z,1.15
2023-04-03T11:23:06.777Z,1.80
2023-04-03T11:25:35.031Z,1.50
2023-04-03T11:28:03.617Z,1.30
2023-04-03T11:30:42.818Z,1.48
2023-04-03T11:33:27.998Z,1.17
2023-04-03T11:36:33.043Z,1.40
2023-04-03T11:39:03.478Z,1.17
2023-04-03T11:41:32.166Z,1.05
2023-04-03T11:44:00.317Z,1.42
2023-04-03T11:46:57.960Z,1.13
2023-04-03T11:50:04.076Z,1.40
2023-04-03T11:52:43.824Z,1.35
2023-04-03T11:55:21.193Z,1.40
2023-04-03T11:58:03.391Z,1.55
2023-04-03T12:00:45.793Z,1.23
2023-04-03T12:03:43.385Z,1.30
2023-04-03T12:06:37.036Z,1.30
2023-04-03T12:09:13.846Z,1.25
2023-04-03T12:11:40.859Z,1.25
2023-04-03T12:14:17.406Z,1.58
2023-04-03T12:16:47.003Z,1.15
2023-04-03T12:19:42.629Z,1.38
2023-04-03T12:22:17.378Z,1.65
2023-04-03T12:24:46.835Z,1.25
2023-04-03T12:27:31.328Z,1.60
2023-04-03T12:30:04.659Z,1.40
2023-04-03T12:33:11.951Z,1.50
2023-04-03T12:35:55.791Z,1.30
2023-04-03T12:38:35.426Z,1.52
2023-04-03T12:41:27.024Z,1.73
2023-04-03T12:44:32.532Z,1.30
2023-04-03T12:47:01.321Z,1.20
2023-04-03T12:49:35.219Z,1.10
2023-04-03T12:52:07.010Z,1.10
2023-04-03T12:54:36.556Z,1.10
2023-04-03T12:57:30.097Z,1.45
2023-04-03T12:59:57.423Z,2.13
2023-04-03T13:02:32.016Z,1.98
2023-04-03T13:05:00.632Z,1.93
2023-04-03T13:07:34.380Z,2.22
2023-04-03T13:10:07.996Z,1.90
2023-04-03T13:12:51.925Z,2.50
2023-04-03T13:15:23.739Z,2.17
2023-04-03T13:17:52.686Z,1.73
2023-04-03T13:20:21.081Z,1.70
2023-04-03T13:22:49.295Z,1.70
2023-04-03T13:25:16.489Z,2.22
2023-04-03T13:27:45.090Z,1.58
2023-04-03T13:30:38.763Z,1.65
2023-04-03T13:33:08.206Z,1.95
2023-04-03T13:35:40.059Z,1.50
2023-04-03T13:38:18.166Z,1.10
2023-04-03T13:40:55.894Z,5.53
2023-04-03T13:43:25.812Z,2.28
2023-04-03T13:46:06.579Z,1.77
2023-04-03T13:48:58.212Z,1.85
2023-04-03T13:51:29.047Z,1.88
2023-04-03T13:54:02.776Z,1.40
2023-04-03T13:56:34.020Z,1.95
2023-04-03T13:59:26.493Z,1.88
2023-04-03T14:01:55.155Z,1.60
2023-04-03T14:04:28.794Z,1.48
2023-04-03T14:06:55.751Z,1.45
2023-04-03T14:09:23.620Z,1.55
2023-04-03T14:11:51.792Z,1.58
2023-04-03T14:14:29.056Z,1.15
2023-04-03T14:16:56.919Z,2.13
2023-04-03T14:19:26.838Z,2.47
2023-04-03T14:21:54.675Z,2.13
2023-04-03T14:24:22.680Z,1.98
2023-04-03T14:26:53.510Z,1.35
2023-04-03T14:29:21.518Z,1.75
2023-04-03T14:31:49.642Z,1.50
2023-04-03T14:34:17.868Z,1.58
2023-04-03T14:36:44.985Z,1.85
2023-04-03T14:39:17.280Z,1.90
2023-04-03T14:41:44.152Z,1.77
2023-04-03T14:44:11.285Z,1.40
2023-04-03T14:46:55.551Z,2.03
2023-04-03T14:49:26.504Z,1.60
2023-04-03T14:54:59.622Z,1.98
2023-04-03T14:57:27.803Z,1.92
2023-04-03T14:59:54.964Z,2.15
2023-04-03T15:02:33.323Z,1.90
2023-04-03T15:05:01.681Z,2.22
2023-04-03T15:07:29.867Z,2.08
2023-04-03T15:09:59.669Z,2.40
2023-04-03T15:12:26.776Z,2.17
2023-04-03T15:15:01.884Z,2.03
2023-04-03T15:17:30.994Z,2.45
2023-04-03T15:19:57.816Z,3.15
2023-04-03T15:22:25.013Z,2.92
2023-04-03T15:24:51.885Z,3.00
2023-04-03T15:27:19.094Z,2.60
2023-04-03T15:29:46.026Z,2.70
2023-04-03T15:32:13.374Z,3.30
2023-04-03T15:34:40.556Z,3.22
2023-04-03T15:37:07.657Z,2.33
2023-04-03T15:39:34.507Z,2.95
2023-04-03T15:42:06.990Z,2.65
2023-04-03T15:44:35.053Z,2.65
2023-04-03T15:47:02.150Z,2.55
2023-04-03T15:49:29.020Z,2.70
2023-04-03T15:51:56.146Z,2.72
2023-04-03T15:54:25.009Z,2.83
2023-04-03T15:56:52.860Z,2.47
2023-04-03T15:59:20.001Z,2.85
2023-04-03T16:01:47.171Z,2.33
2023-04-03T16:04:15.580Z,2.22
2023-04-03T16:06:43.329Z,2.10
2023-04-03T16:09:10.190Z,2.42
2023-04-03T16:11:40.106Z,2.33
2023-04-03T16:14:10.356Z,2.45
2023-04-03T16:16:39.018Z,2.58
2023-04-03T16:19:05.983Z,2.45
2023-04-03T16:21:33.738Z,2.75
2023-04-03T16:24:00.604Z,2.45
2023-04-03T16:26:27.804Z,2.13
2023-04-03T16:28:55.126Z,2.38
2023-04-03T16:31:22.911Z,2.55
2023-04-03T16:33:49.740Z,1.90
2023-04-03T16:36:16.903Z,1.88
2023-04-03T16:38:43.679Z,2.30
2023-04-03T16:41:10.876Z,2.40
2023-04-03T16:43:37.949Z,2.03
2023-04-03T16:46:05.531Z,1.88
2023-04-03T16:48:32.465Z,2.38
2023-04-03T16:50:59.598Z,1.98
2023-04-03T16:53:27.291Z,2.83
2023-04-03T16:55:54.524Z,2.58
2023-04-03T16:58:23.405Z,2.72
2023-04-03T17:00:51.733Z,3.20
2023-04-03T17:03:18.603Z,2.80
2023-04-03T17:05:48.572Z,2.78
2023-04-03T17:08:16.806Z,3.05
2023-04-03T17:10:43.942Z,2.75
2023-04-03T17:13:10.840Z,2.90
2023-04-03T17:15:38.175Z,3.17
2023-04-03T17:18:05.626Z,2.92
2023-04-03T17:20:34.729Z,2.85
2023-04-03T17:23:01.564Z,2.63
2023-04-03T17:25:28.774Z,2.47
2023-04-03T17:27:55.645Z,2.60
2023-04-03T17:30:22.913Z,2.75
2023-04-03T17:32:49.763Z,3.08
2023-04-03T17:35:17.014Z,3.10
2023-04-03T17:37:43.802Z,2.78
2023-04-03T17:40:14.305Z,2.83
2023-04-03T17:42:41.237Z,2.65
2023-04-03T17:45:08.781Z,3.33
2023-04-03T17:47:35.782Z,3.42
2023-04-03T17:50:02.900Z,3.85
2023-04-03T17:52:31.909Z,3.53
2023-04-03T17:54:59.026Z,3.67
2023-04-03T17:57:26.005Z,2.63
2023-04-03T17:59:54.073Z,2.75
2023-04-03T18:02:21.175Z,3.35
2023-04-03T18:04:50.729Z,3.17
2023-04-03T18:07:17.523Z,3.53
2023-04-03T18:09:44.752Z,3.25
2023-04-03T18:12:11.562Z,3.33
2023-04-03T18:14:38.649Z,2.83
2023-04-03T18:17:05.492Z,3.45
2023-04-03T18:19:32.913Z,3.60
2023-04-03T18:22:19.268Z,3.08
2023-04-03T18:24:46.394Z,3.13
2023-04-03T18:27:14.512Z,2.88
2023-04-03T18:29:43.253Z,3.10
2023-04-03T18:32:10.648Z,3.17
2023-04-03T18:34:38.148Z,3.40
2023-04-03T18:37:06.032Z,3.10
2023-04-03T18:39:33.185Z,3.05
2023-04-03T18:42:03.778Z,3.35
2023-04-03T18:44:31.157Z,2.90
2023-04-03T18:46:59.935Z,3.20
2023-04-03T18:49:30.563Z,3.05
2023-04-03T18:51:57.323Z,2.67
2023-04-03T18:54:24.538Z,2.65
2023-04-03T18:56:51.433Z,3.22
2023-04-03T18:59:18.616Z,2.55
2023-04-03T19:01:45.451Z,2.70
2023-04-03T19:04:12.651Z,2.75
2023-04-03T19:06:39.616Z,2.88
2023-04-03T19:09:06.960Z,3.17
2023-04-03T19:11:34.258Z,3.17
2023-04-03T19:14:10.565Z,3.25
2023-04-03T19:16:42.007Z,2.92
2023-04-03T19:19:09.057Z,2.97
2023-04-03T19:21:40.748Z,3.00
2023-04-03T19:24:12.050Z,3.47
2023-04-03T19:26:39.305Z,3.53
2023-04-03T19:29:06.500Z,2.72
2023-04-03T19:31:34.029Z,3.58
2023-04-03T19:34:02.628Z,2.75
2023-04-03T19:36:30.476Z,2.88
2023-04-03T19:38:57.583Z,2.90
2023-04-03T19:41:25.356Z,3.22
2023-04-03T19:43:52.707Z,3.60
2023-04-03T19:46:24.611Z,3.13
2023-04-03T19:48:52.241Z,3.20
2023-04-03T19:51:19.192Z,3.10
2023-04-03T19:53:47.568Z,3.05
2023-04-03T19:56:16.624Z,2.72
2023-04-03T19:58:43.917Z,3.42
2023-04-03T20:01:11.319Z,3.25
2023-04-03T20:03:39.253Z,3.28
2023-04-03T20:06:06.153Z,3.22
2023-04-03T20:08:33.335Z,2.92
2023-04-03T20:11:00.164Z,3.08
2023-04-03T20:13:27.359Z,3.65
2023-04-03T20:15:54.180Z,3.00
2023-04-03T20:18:21.474Z,3.50
2023-04-03T20:20:55.612Z,2.50
2023-04-03T20:23:23.097Z,3.03
2023-04-03T20:26:01.549Z,2.75
2023-04-03T20:28:36.343Z,3.38
2023-04-03T20:31:03.834Z,2.85
2023-04-03T20:33:31.027Z,2.60
2023-04-03T20:35:58.150Z,2.78
2023-04-03T20:38:25.416Z,3.45
2023-04-03T20:40:52.463Z,2.75
2023-04-03T20:43:21.774Z,2.70
2023-04-03T20:45:49.365Z,2.75
2023-04-03T20:48:18.241Z,3.30
2023-04-03T20:50:45.951Z,3.17
2023-04-03T20:55:40.333Z,2.97
2023-04-03T20:58:07.751Z,3.22
2023-04-03T21:00:34.518Z,3.58
2023-04-03T21:03:01.755Z,3.17
2023-04-03T21:05:30.681Z,3.30
2023-04-03T21:08:36.002Z,3.00
2023-04-03T21:11:40.604Z,3.40
2023-04-03T21:14:46.887Z,3.58
2023-04-03T21:17:13.823Z,3.47
2023-04-03T21:19:46.095Z,3.70
2023-04-03T21:22:13.716Z,3.88
2023-04-03T21:24:41.110Z,3.10
2023-04-03T21:27:08.187Z,3.97
2023-04-03T21:29:35.283Z,3.80
2023-04-03T21:32:02.198Z,3.97
2023-04-03T21:34:30.330Z,3.85
2023-04-03T21:37:01.076Z,3.97
2023-04-03T21:39:28.459Z,3.17
2023-04-03T21:41:55.323Z,3.50
2023-04-03T21:44:22.761Z,3.13
2023-04-03T21:46:53.720Z,4.03
2023-04-03T21:49:21.523Z,3.30
2023-04-03T21:51:48.463Z,4.25
2023-04-03T21:54:15.992Z,3.88
2023-04-03T21:56:42.845Z,4.00
2023-04-03T21:59:10.143Z,3.65
2023-04-03T22:01:37.196Z,4.00
2023-04-03T22:04:04.423Z,3.75
2023-04-03T22:06:31.263Z,3.80
2023-04-03T22:08:58.482Z,3.72
2023-04-03T22:11:27.257Z,3.88
2023-04-03T22:13:55.041Z,3.85
2023-04-03T22:16:23.532Z,4.13
2023-04-03T22:18:52.130Z,3.58
2023-04-03T22:21:19.090Z,3.50
2023-04-03T22:23:46.377Z,3.95
2023-04-03T22:26:13.437Z,3.90
2023-04-03T22:28:47.012Z,4.20
2023-04-03T22:31:14.537Z,4.00
2023-04-03T22:33:42.629Z,3.80
2023-04-03T22:36:10.712Z,3.83
2023-04-03T22:38:38.961Z,3.63
2023-04-03T22:41:07.217Z,4.05
2023-04-03T22:43:35.326Z,3.47
2023-04-03T22:46:09.132Z,3.42
2023-04-03T22:48:37.285Z,3.63
2023-04-03T22:51:07.451Z,3.55
2023-04-03T22:53:35.586Z,4.45
2023-04-03T22:56:03.404Z,4.25
2023-04-03T22:58:30.564Z,3.28
2023-04-03T23:01:05.517Z,3.50
2023-04-03T23:03:32.906Z,3.08
2023-04-03T23:06:01.490Z,3.45
2023-04-03T23:08:29.639Z,3.50
2023-04-03T23:10:57.789Z,2.85
2023-04-03T23:13:25.128Z,3.20
2023-04-03T23:15:58.635Z,3.22
2023-04-03T23:18:29.629Z,3.67
2023-04-03T23:20:57.134Z,3.60
2023-04-03T23:23:24.301Z,3.17
2023-04-03T23:25:57.108Z,3.40
2023-04-03T23:28:24.700Z,3.85
2023-04-03T23:31:01.771Z,3.20
2023-04-03T23:33:30.575Z,3.45
2023-04-03T23:35:58.644Z,3.50
2023-04-03T23:38:25.943Z,3.30
2023-04-03T23:40:52.699Z,3.63
2023-04-03T23:43:19.783Z,3.10
2023-04-03T23:45:46.723Z,3.22
2023-04-03T23:48:14.137Z,3.47
2023-04-03T23:50:42.629Z,3.55
2023-04-03T23:53:09.847Z,3.50
2023-04-03T23:55:36.955Z,3.38
2023-04-03T23:58:04.105Z,3.70
